createdAt,value
2024-05-09T00:01:54.646Z,4.40
2024-05-09T00:06:57.282Z,4.40
2024-05-09T00:12:00.142Z,4.10
2024-05-09T00:17:03.302Z,4.10
2024-05-09T00:22:06.057Z,4.30
2024-05-09T00:27:11.284Z,5.20
2024-05-09T00:32:14.661Z,4.20
2024-05-09T00:37:17.428Z,4.20
2024-05-09T00:42:20.109Z,4.80
2024-05-09T00:47:24.166Z,4.60
2024-05-09T00:52:28.121Z,4.90
2024-05-09T00:57:30.774Z,4.40
2024-05-09T01:02:33.692Z,5.20
2024-05-09T01:07:37.059Z,5.10
2024-05-09T01:12:39.709Z,4.90
2024-05-09T01:17:42.678Z,5.10
2024-05-09T01:22:45.472Z,4.80
2024-05-09T01:27:48.130Z,5.90
2024-05-09T01:32:51.056Z,5.10
2024-05-09T01:37:54.228Z,5.30
2024-05-09T01:42:56.965Z,5.30
2024-05-09T01:47:59.978Z,5.50
2024-05-09T01:53:02.958Z,6.00
2024-05-09T01:58:06.080Z,5.70
2024-05-09T02:03:11.573Z,5.80
2024-05-09T02:08:19.455Z,6.10
2024-05-09T02:13:22.495Z,6.10
2024-05-09T02:18:25.187Z,6.20
2024-05-09T02:23:27.989Z,6.70
2024-05-09T02:28:30.840Z,6.00
2024-05-09T02:33:33.898Z,5.90
2024-05-09T02:38:37.297Z,5.30
2024-05-09T02:43:40.298Z,5.40
2024-05-09T02:48:43.464Z,6.90
2024-05-09T02:53:46.226Z,5.40
2024-05-09T02:58:48.975Z,5.00
2024-05-09T03:03:52.327Z,5.50
2024-05-09T03:08:55.194Z,5.50
2024-05-09T03:13:57.945Z,6.50
2024-05-09T03:19:00.792Z,6.90
2024-05-09T03:24:03.592Z,7.50
2024-05-09T03:29:06.239Z,7.70
2024-05-09T03:34:11.103Z,7.50
2024-05-09T03:39:13.866Z,7.00
2024-05-09T03:44:16.547Z,7.30
2024-05-09T03:49:19.292Z,6.20
2024-05-09T03:54:22.388Z,6.70
2024-05-09T03:59:25.042Z,6.90
2024-05-09T04:04:27.838Z,6.50
2024-05-09T04:09:30.470Z,8.10
2024-05-09T04:14:33.655Z,6.30
2024-05-09T04:19:36.523Z,7.10
2024-05-09T04:24:39.253Z,6.10
2024-05-09T04:29:41.860Z,6.20
2024-05-09T04:34:44.594Z,5.80
2024-05-09T04:39:47.213Z,5.30
2024-05-09T04:44:49.851Z,4.70
2024-05-09T04:49:52.541Z,4.00
2024-05-09T04:54:56.898Z,4.20
2024-05-09T05:00:02.999Z,5.00
2024-05-09T05:05:06.991Z,4.30
2024-05-09T05:10:14.864Z,4.20
2024-05-09T05:15:23.788Z,5.00
2024-05-09T05:20:32.861Z,4.90
2024-05-09T05:25:37.868Z,5.90
2024-05-09T05:30:41.468Z,5.00
2024-05-09T05:35:45.257Z,4.30
2024-05-09T05:40:48.115Z,3.10
2024-05-09T05:45:51.151Z,3.30
2024-05-09T05:50:53.813Z,3.50
2024-05-09T05:55:56.665Z,3.70
2024-05-09T06:00:59.403Z,3.30
2024-05-09T06:06:04.170Z,2.90
2024-05-09T06:11:07.781Z,3.10
2024-05-09T06:16:11.608Z,2.60
2024-05-09T06:21:17.733Z,3.00
2024-05-09T06:26:21.085Z,3.10
2024-05-09T06:31:26.684Z,2.80
2024-05-09T06:36:30.019Z,2.50
2024-05-09T06:41:38.432Z,2.40
2024-05-09T06:46:42.008Z,2.40
2024-05-09T06:51:44.970Z,2.60
2024-05-09T06:56:49.709Z,2.60
2024-05-09T07:01:52.714Z,2.50
2024-05-09T07:06:59.012Z,2.90
2024-05-09T07:12:02.211Z,2.30
2024-05-09T07:17:05.467Z,2.50
2024-05-09T07:22:09.702Z,2.40
2024-05-09T07:27:13.149Z,2.90
2024-05-09T07:32:16.515Z,2.60
2024-05-09T07:37:19.342Z,2.40
2024-05-09T07:42:24.787Z,2.30
2024-05-09T07:53:33.083Z,2.80
2024-05-09T07:57:56.615Z,2.20
2024-05-09T08:02:59.521Z,3.20
2024-05-09T08:08:02.670Z,2.80
2024-05-09T08:13:05.645Z,2.50
2024-05-09T08:18:09.924Z,2.10
2024-05-09T08:23:12.862Z,2.60
2024-05-09T08:28:16.824Z,2.30
2024-05-09T08:38:22.969Z,2.60
2024-05-09T08:43:29.069Z,2.50
2024-05-09T08:48:34.503Z,2.30
2024-05-09T08:53:37.646Z,2.20
2024-05-09T08:58:41.936Z,2.60
2024-05-09T09:03:44.988Z,3.30
2024-05-09T09:08:48.755Z,2.90
2024-05-09T09:13:51.485Z,2.50
2024-05-09T09:18:57.735Z,2.80
2024-05-09T09:24:01.297Z,2.40
2024-05-09T09:29:04.344Z,2.40
2024-05-09T09:34:09.539Z,2.50
2024-05-09T09:44:23.565Z,2.30
2024-05-09T09:49:27.826Z,2.50
2024-05-09T09:54:30.831Z,5.30
2024-05-09T09:59:35.741Z,4.30
2024-05-09T10:04:38.599Z,2.40
2024-05-09T10:09:42.416Z,2.50
2024-05-09T10:14:45.820Z,6.10
2024-05-09T10:19:48.843Z,2.60
2024-05-09T10:24:53.400Z,2.20
2024-05-09T10:29:58.286Z,2.40
2024-05-09T10:35:05.430Z,2.20
2024-05-09T10:40:14.241Z,2.20
2024-05-09T10:45:26.289Z,2.10
2024-05-09T10:50:34.380Z,2.80
2024-05-09T10:55:37.494Z,2.30
2024-05-09T11:00:47.924Z,2.10
2024-05-09T11:05:56.039Z,1.90
2024-05-09T11:11:00.062Z,1.90
2024-05-09T11:16:04.680Z,1.90
2024-05-09T11:21:13.975Z,1.70
2024-05-09T11:26:19.335Z,1.50
2024-05-09T11:31:22.376Z,1.80
2024-05-09T11:36:26.143Z,1.90
2024-05-09T11:41:30.990Z,2.00
2024-05-09T11:46:33.864Z,2.80
2024-05-09T11:51:36.780Z,2.10
2024-05-09T11:56:39.509Z,2.20
2024-05-09T12:01:42.272Z,1.90
2024-05-09T12:06:46.073Z,1.70
2024-05-09T12:11:48.962Z,2.00
2024-05-09T12:16:51.725Z,1.80
2024-05-09T12:21:54.495Z,2.00
2024-05-09T12:26:57.749Z,1.50
2024-05-09T12:32:00.466Z,2.30
2024-05-09T12:37:04.693Z,1.80
2024-05-09T12:42:09.782Z,1.80
2024-05-09T12:47:13.739Z,1.80
2024-05-09T12:52:16.755Z,2.00
2024-05-09T12:57:20.003Z,1.90
2024-05-09T13:02:22.992Z,1.70
2024-05-09T13:07:25.865Z,1.90
2024-05-09T13:12:28.575Z,1.60
2024-05-09T13:17:31.659Z,1.60
2024-05-09T13:22:34.960Z,1.90
2024-05-09T13:27:39.757Z,2.00
2024-05-09T13:32:42.814Z,2.00
2024-05-09T13:37:46.246Z,1.70
2024-05-09T13:42:49.013Z,2.30
2024-05-09T13:47:52.059Z,2.00
2024-05-09T13:52:55.927Z,2.10
2024-05-09T13:57:58.785Z,1.80
2024-05-09T14:03:04.175Z,1.70
2024-05-09T14:08:08.793Z,1.70
2024-05-09T14:13:11.926Z,1.90
2024-05-09T14:18:15.597Z,1.70
2024-05-09T14:23:18.828Z,1.60
2024-05-09T14:28:24.767Z,1.80
2024-05-09T14:38:30.480Z,1.80
2024-05-09T14:43:36.549Z,1.90
2024-05-09T14:48:42.589Z,2.00
2024-05-09T14:53:45.681Z,2.10
2024-05-09T14:58:48.621Z,2.40
2024-05-09T15:03:52.272Z,2.00
2024-05-09T15:08:57.475Z,2.00
2024-05-09T15:14:00.133Z,2.00
2024-05-09T15:19:04.817Z,2.00
2024-05-09T15:24:07.530Z,2.00
2024-05-09T15:29:10.435Z,2.20
2024-05-09T15:34:13.171Z,1.90
2024-05-09T15:39:15.879Z,2.00
2024-05-09T15:44:19.928Z,2.10
2024-05-09T15:49:22.905Z,1.70
2024-05-09T15:54:27.713Z,1.80
2024-05-09T15:59:30.444Z,2.10
2024-05-09T16:04:33.312Z,2.10
2024-05-09T16:09:36.279Z,2.00
2024-05-09T16:14:39.419Z,1.90
2024-05-09T16:19:43.623Z,2.10
2024-05-09T16:24:46.352Z,1.70
2024-05-09T16:29:49.052Z,2.00
2024-05-09T16:34:52.407Z,2.20
2024-05-09T16:39:55.193Z,1.90
2024-05-09T16:44:58.292Z,2.10
2024-05-09T16:50:00.893Z,2.30
2024-05-09T16:55:04.168Z,2.00
2024-05-09T17:00:14.863Z,2.40
2024-05-09T17:05:24.793Z,2.90
2024-05-09T17:10:32.802Z,2.70
2024-05-09T17:15:40.270Z,2.70
2024-05-09T17:20:43.087Z,2.30
2024-05-09T17:25:48.094Z,2.20
2024-05-09T17:30:51.210Z,2.20
2024-05-09T17:35:53.996Z,2.20
2024-05-09T17:40:58.178Z,2.00
2024-05-09T17:46:01.185Z,2.20
2024-05-09T17:51:04.224Z,2.70
2024-05-09T17:56:09.321Z,2.50
2024-05-09T18:01:12.558Z,2.40
2024-05-09T18:06:16.807Z,2.40
2024-05-09T18:11:19.756Z,2.30
2024-05-09T18:16:23.283Z,2.40
2024-05-09T18:21:27.212Z,3.50
2024-05-09T18:26:40.857Z,15.00
2024-05-09T18:31:43.635Z,11.40
2024-05-09T18:36:46.646Z,7.30
2024-05-09T18:41:49.443Z,10.20
2024-05-09T18:46:52.202Z,9.40
2024-05-09T18:51:54.905Z,4.50
2024-05-09T18:57:00.778Z,3.60
2024-05-09T19:07:09.453Z,3.20
2024-05-09T19:12:14.622Z,3.20
2024-05-09T19:17:25.003Z,3.60
2024-05-09T19:22:28.506Z,3.30
2024-05-09T19:27:31.586Z,3.40
2024-05-09T19:32:34.435Z,3.50
2024-05-09T19:37:41.443Z,6.20
2024-05-09T19:42:45.578Z,6.60
2024-05-09T19:47:48.529Z,4.80
2024-05-09T19:52:51.933Z,4.80
2024-05-09T19:57:54.670Z,4.70
2024-05-09T20:02:57.481Z,4.60
2024-05-09T20:08:01.232Z,4.80
2024-05-09T20:13:06.987Z,4.50
2024-05-09T20:18:10.898Z,4.70
2024-05-09T20:23:14.051Z,4.60
2024-05-09T20:28:20.974Z,4.80
2024-05-09T20:33:23.774Z,5.50
2024-05-09T20:38:26.550Z,5.00
2024-05-09T20:43:29.429Z,5.90
2024-05-09T20:48:34.276Z,5.50
2024-05-09T20:53:37.484Z,5.60
2024-05-09T20:58:42.503Z,5.20
2024-05-09T21:03:45.294Z,5.80
2024-05-09T21:08:49.521Z,5.20
2024-05-09T21:13:52.721Z,5.80
2024-05-09T21:18:55.399Z,6.50
2024-05-09T21:23:59.517Z,6.90
2024-05-09T21:29:02.348Z,5.90
2024-05-09T21:34:05.174Z,5.70
2024-05-09T21:39:10.318Z,5.20
2024-05-09T21:44:12.984Z,5.40
2024-05-09T21:49:17.297Z,6.10
2024-05-09T21:54:20.177Z,6.60
2024-05-09T21:59:22.834Z,6.90
2024-05-09T22:04:25.670Z,6.70
2024-05-09T22:09:28.431Z,6.00
2024-05-09T22:14:31.123Z,6.50
2024-05-09T22:19:33.945Z,5.80
2024-05-09T22:24:36.984Z,6.00
2024-05-09T22:29:39.743Z,6.20
2024-05-09T22:34:42.496Z,5.70
2024-05-09T22:39:45.487Z,5.70
2024-05-09T22:44:48.180Z,5.90
2024-05-09T22:49:50.874Z,5.50
2024-05-09T22:54:53.523Z,5.50
2024-05-09T22:59:56.251Z,6.30
2024-05-09T23:04:59.036Z,6.40
2024-05-09T23:10:01.923Z,5.00
2024-05-09T23:15:06.088Z,5.40
2024-05-09T23:20:11.590Z,5.50
2024-05-09T23:25:14.753Z,4.60
2024-05-09T23:30:28.406Z,5.20
2024-05-09T23:35:37.162Z,5.30
2024-05-09T23:40:41.615Z,4.70
2024-05-09T23:45:45.619Z,5.80
2024-05-09T23:50:49.670Z,5.60
2024-05-09T23:55:52.347Z,5.90
